METAR Data
IDs: Format: Raw Decoded Include TAF

Data at: 0619 UTC 24 Sep 2018

KLPR 240553Z AUTO 08007KT 10SM CLR 12/09 A3021 RMK AO2 SLP228 T01220089 10150 20122 58003
KLPR 240453Z AUTO 09006KT 10SM CLR 13/09 A3021 RMK AO2 SLP230 T01280094 402060067
KLPR 240353Z AUTO 07005KT 10SM CLR 13/10 A3021 RMK AO2 SLP229 T01330100
KLPR 240253Z AUTO 08005KT 10SM CLR 13/10 A3022 RMK AO2 SLP231 T01330100 53012
KLPR 240153Z AUTO 07005KT 10SM CLR 13/10 A3020 RMK AO2 SLP226 T01280100
KLPR 240053Z AUTO 03006KT 10SM CLR 14/11 A3019 RMK AO2 SLP224 T01390106
KLPR 232353Z AUTO 03006KT 10SM CLR 15/11 A3018 RMK AO2 SLP221 T01500106 10206 20144 53006
KLPR 232253Z AUTO 08008KT 10SM CLR 18/11 A3017 RMK AO2 SLP218 T01780106
KLPR 232153Z AUTO 10SM CLR 20/11 A3017 RMK AO2 SLP215 T02000106
KLPR 232053Z AUTO 08007KT 10SM CLR 20/11 A3016 RMK AO2 SLP214 T02000106 56013
KLPR 231953Z AUTO 07008G17KT 10SM CLR 20/10 A3017 RMK AO2 SLP215 T02000100
KLPR 231853Z AUTO 06008G19KT 10SM CLR 20/09 A3018 RMK AO2 SLP220 T02000094
KLPR 231753Z AUTO 04010G19KT 10SM CLR 19/09 A3020 RMK AO2 SLP227 T01940094 10194 20078 58008
KLPR 231653Z AUTO 05011G18KT 10SM FEW029 18/09 A3021 RMK AO2 SLP231 T01830089
KLPR 231649Z AUTO 06010G18KT 10SM SCT029 18/09 A3021 RMK AO2
KLPR 231635Z AUTO 07010G17KT 10SM BKN028 18/09 A3021 RMK AO2 T01830094
KLPR 231553Z AUTO 07011G20KT 10SM CLR 18/09 A3022 RMK AO2 SLP234 T01780089
KLPR 231453Z AUTO 10007KT 10SM CLR 16/09 A3023 RMK AO2 SLP237 T01610089 53005
KLPR 231353Z AUTO 08005KT 10SM CLR 14/09 A3022 RMK AO2 SLP235 T01390089
KLPR 231253Z AUTO 05007KT 10SM CLR 11/08 A3022 RMK AO2 SLP233 T01060078
KLPR 231153Z AUTO 04006KT 6SM HZ CLR 08/05 A3021 RMK AO2 SLP233 T00780050 10100 20067 53004
KLPR 231137Z AUTO 04007KT 3SM BR CLR 07/05 A3021 RMK AO2 T00720050
KLPR 231125Z AUTO 04008KT 1 3/4SM HZ CLR 07/04 A3020 RMK AO2 T00720044
KLPR 231109Z AUTO 33006KT 3SM HZ CLR 07/04 A3021 RMK AO2 T00720044
KLPR 231053Z AUTO 00000KT 1 3/4SM BR CLR 07/05 A3021 RMK AO2 SLP231 T00720050
KLPR 230953Z AUTO 00000KT 1/2SM FG CLR 07/05 A3020 RMK AO2 SLP227 T00720050
KLPR 230853Z AUTO VRB03KT 1/2SM FG CLR 08/06 A3020 RMK AO2 SLP227 T00780056 55003
KLPR 230845Z AUTO 04006KT 1/2SM HZ CLR 08/06 A3020 RMK AO2 T00830056
KLPR 230833Z AUTO 33004KT 1 1/2SM HZ CLR 08/06 A3020 RMK AO2 VIS 1V2 T00830056
KLPR 230811Z AUTO 03004KT 3/4SM HZ CLR 08/05 A3020 RMK AO2 T00780050
KLPR 230805Z AUTO VRB05KT 2SM HZ CLR 08/05 A3019 RMK AO2 VIS 1 1/4V5 T00780050
KLPR 230753Z AUTO 00000KT 1/2SM HZ CLR 08/05 A3020 RMK AO2 SLP227 T00780050
KLPR 230750Z AUTO VRB03KT 1/2SM HZ CLR 08/05 A3020 RMK AO2
KLPR 230735Z AUTO VRB04KT 1/4SM FG CLR 08/06 A3020 RMK AO2 T00780056
KLPR 230726Z AUTO 03006KT 1SM HZ CLR 08/06 A3020 RMK AO2 T00830056
KLPR 230718Z AUTO 00000KT 1/2SM FG VV002 08/06 A3021 RMK AO2 T00830061
KLPR 230710Z AUTO VRB05KT 1SM HZ VV002 09/06 A3021 RMK AO2 VIS 1/4V3 T00890061
KLPR 230653Z AUTO 03007KT 2 1/2SM BR CLR 08/06 A3021 RMK AO2 SLP230 T00780056
KLPR 230553Z AUTO VRB04KT 7SM CLR 09/07 A3023 RMK AO2 SLP236 T00940067 10128 20094 58003
KLPR 230453Z AUTO 06006KT 10SM CLR 11/07 A3023 RMK AO2 SLP238 T01110072 401780111
KLPR 230416Z AUTO 08006KT 10SM SCT027 12/08 A3024 RMK AO2 T01170078
KLPR 230353Z AUTO 04006KT 10SM OVC027 12/09 A3024 RMK AO2 SLP239 T01170089
KLPR 230253Z AUTO VRB03KT 10SM BKN026 12/09 A3024 RMK AO2 SLP239 T01220089 56002
KLPR 230241Z AUTO 04005KT 10SM SCT026 12/09 A3024 RMK AO2 T01170089
KLPR 230207Z AUTO 32008KT 10SM BKN027 12/09 A3024 RMK AO2 T01170089
KLPR 230153Z AUTO 30005KT 10SM FEW027 12/08 A3024 RMK AO2 SLP239 T01170083
KLPR 230053Z AUTO 02003KT 10SM CLR 12/08 A3023 RMK AO2 SLP237 T01220083
KLPR 222353Z AUTO 02004KT 10SM SCT035 13/08 A3024 RMK AO2 SLP240 T01280083 10172 20128 58002
KLPR 222253Z AUTO 04005KT 10SM CLR 14/08 A3025 RMK AO2 SLP243 T01390078
KLPR 222153Z AUTO 04009G18KT 10SM SCT032 15/07 A3024 RMK AO2 SLP241 T01500072
KLPR 222053Z AUTO 04013G16KT 10SM OVC032 16/08 A3025 RMK AO2 SLP242 T01560078 58013
KLPR 221953Z AUTO 04014G17KT 10SM OVC031 16/07 A3026 RMK AO2 SLP245 T01610072
KLPR 221853Z AUTO 05007G16KT 10SM FEW027 OVC037 16/08 A3028 RMK AO2 SLP250 T01610078